Time;durP1;ratioP1;P1;durP2;ratioP2;P2;SDS_P1;SDS_P2;PMS_P1;PMS_P2;Temp;Humidity;BMP_temperature;BMP_pressure;BME280_temperature;BME280_humidity;BME280_pressure;Samples;Min_cycle;Max_cycle;Signal;HPM_P1;HPM_P2
2022/06/27 00:00:20;;;;;;;7.72;5.78;;;;;;;26.05;45.93;99885.97;5052954;28;20040;-69
2022/06/27 00:02:46;;;;;;;9.75;5.68;;;;;;;26.04;45.85;99889.72;5053312;28;20033;-69
2022/06/27 00:05:11;;;;;;;11.13;5.55;;;;;;;26.04;45.84;99893.25;5052696;28;20061;-70
2022/06/27 00:07:37;;;;;;;10.70;6.00;;;;;;;26.04;45.99;99893.25;5062275;28;20511;-69
2022/06/27 00:10:04;;;;;;;10.80;5.95;;;;;;;26.01;46.03;99890.16;5072049;28;20044;-70
2022/06/27 00:12:30;;;;;;;12.73;5.63;;;;;;;25.99;46.09;99890.38;5066054;28;20045;-69
2022/06/27 00:14:56;;;;;;;11.02;5.57;;;;;;;25.98;45.94;99888.72;5072636;28;20086;-69
2022/06/27 00:17:22;;;;;;;8.68;5.93;;;;;;;25.97;46.19;99889.75;5072520;28;20133;-69
2022/06/27 00:19:47;;;;;;;6.28;5.10;;;;;;;25.97;46.22;99902.47;5054595;28;20116;-69
2022/06/27 00:22:13;;;;;;;9.20;5.38;;;;;;;25.93;46.06;99909.38;5070825;28;20376;-68
2022/06/27 00:24:38;;;;;;;9.77;5.72;;;;;;;25.92;46.26;99902.28;5055032;28;20056;-69
2022/06/27 00:27:04;;;;;;;9.15;5.47;;;;;;;25.90;46.28;99900.63;5065113;28;20111;-68
2022/06/27 00:29:30;;;;;;;7.43;5.65;;;;;;;25.90;46.56;99906.03;5052298;28;20032;-69
2022/06/27 00:31:55;;;;;;;7.78;5.40;;;;;;;25.89;46.55;99898.09;5052275;28;20099;-69
2022/06/27 00:34:21;;;;;;;10.75;5.53;;;;;;;25.88;46.66;99899.19;5052143;28;20108;-69
2022/06/27 00:36:46;;;;;;;7.32;5.70;;;;;;;25.86;46.56;99910.22;5052755;28;20462;-68
2022/06/27 00:39:12;;;;;;;7.50;5.38;;;;;;;25.86;46.54;99902.09;5062613;28;20070;-69
2022/06/27 00:41:37;;;;;;;8.70;4.88;;;;;;;25.86;46.63;99909.41;5052078;28;20480;-69
2022/06/27 00:44:03;;;;;;;11.57;5.07;;;;;;;25.86;46.49;99902.09;5054201;28;20033;-69
2022/06/27 00:46:29;;;;;;;12.88;5.75;;;;;;;25.86;46.59;99902.09;5052878;28;20037;-69
2022/06/27 00:48:55;;;;;;;6.32;4.75;;;;;;;25.87;46.65;99903.75;5064687;28;20123;-69
2022/06/27 00:51:24;;;;;;;9.85;5.53;;;;;;;25.88;46.71;99910.84;5066173;28;20044;-68
2022/06/27 00:53:53;;;;;;;9.27;5.70;;;;;;;25.88;46.52;99905.41;5063819;28;20034;-68
2022/06/27 00:56:19;;;;;;;7.93;5.53;;;;;;;25.92;46.39;99910.41;5067720;28;20537;-69
2022/06/27 00:58:45;;;;;;;6.88;5.18;;;;;;;25.89;46.52;99906.22;5065552;28;20037;-71
2022/06/27 01:01:10;;;;;;;7.97;5.75;;;;;;;25.88;46.30;99905.41;5066350;28;20063;-69
2022/06/27 01:03:36;;;;;;;7.22;5.22;;;;;;;25.87;46.43;99914.59;5068459;28;20410;-69
2022/06/27 01:06:03;;;;;;;10.38;5.32;;;;;;;25.88;46.55;99910.84;5071015;28;20040;-70
2022/06/27 01:08:29;;;;;;;10.57;5.30;;;;;;;25.89;46.38;99909.78;5069873;28;20066;-68
2022/06/27 01:10:54;;;;;;;8.18;5.82;;;;;;;25.92;46.43;99903.09;5062110;28;20025;-71
2022/06/27 01:13:21;;;;;;;6.30;4.82;;;;;;;25.96;46.39;99906.22;5052489;28;20094;-70
2022/06/27 01:15:46;;;;;;;10.02;5.57;;;;;;;25.99;46.35;99912.06;5068022;28;20549;-70
2022/06/27 01:18:12;;;;;;;10.73;5.53;;;;;;;26.02;46.21;99902.66;5071837;28;20033;-71
2022/06/27 01:20:40;;;;;;;23.65;5.93;;;;;;;26.02;46.34;99905.38;5074698;28;20037;-70
2022/06/27 01:23:06;;;;;;;8.25;5.35;;;;;;;26.04;46.29;99908.69;5075106;28;20043;-69
2022/06/27 01:25:34;;;;;;;9.63;5.13;;;;;;;26.03;46.22;99897.00;5075145;28;20044;-69
2022/06/27 01:28:01;;;;;;;6.13;4.57;;;;;;;26.06;46.20;99909.31;5062826;28;20412;-69
2022/06/27 01:30:26;;;;;;;9.32;4.72;;;;;;;26.07;46.11;99916.41;5075407;28;20039;-69
2022/06/27 01:32:52;;;;;;;7.00;4.72;;;;;;;26.09;46.05;99911.63;5075172;28;20455;-70
2022/06/27 01:35:17;;;;;;;8.52;4.72;;;;;;;26.12;46.13;99904.97;5074859;28;20126;-69
2022/06/27 01:37:43;;;;;;;6.35;4.88;;;;;;;26.10;46.17;99902.41;5064826;28;20041;-69
2022/06/27 01:40:08;;;;;;;8.82;5.28;;;;;;;26.11;46.06;99895.97;5063812;28;20036;-70
2022/06/27 01:42:34;;;;;;;6.47;4.93;;;;;;;26.13;46.28;99898.50;5064418;28;20081;-70
2022/06/27 01:45:00;;;;;;;8.35;5.50;;;;;;;26.16;46.00;99906.19;5054861;28;20066;-69
2022/06/27 01:47:27;;;;;;;8.13;5.18;;;;;;;26.17;46.23;99902.44;5054816;28;20043;-69
2022/06/27 01:49:53;;;;;;;7.38;4.53;;;;;;;26.16;46.18;99900.78;5055080;28;20457;-70
2022/06/27 01:52:19;;;;;;;10.20;5.68;;;;;;;26.17;46.18;99894.31;5054358;28;20033;-70
2022/06/27 01:54:45;;;;;;;9.68;4.97;;;;;;;26.18;46.18;99904.94;5054549;28;20037;-70
2022/06/27 01:57:11;;;;;;;8.35;4.90;;;;;;;26.23;46.05;99906.16;5054525;28;20033;-69
2022/06/27 01:59:37;;;;;;;8.90;5.28;;;;;;;26.26;46.07;99900.28;5057822;28;20032;-69
2022/06/27 02:02:04;;;;;;;8.50;4.40;;;;;;;26.30;45.95;99901.53;5072710;28;20059;-69
2022/06/27 02:04:30;;;;;;;5.80;4.65;;;;;;;26.36;45.92;99911.53;5073833;28;20085;-69
2022/06/27 02:06:57;;;;;;;7.85;5.05;;;;;;;26.38;45.64;99912.16;5074664;28;20040;-70
2022/06/27 02:09:23;;;;;;;5.95;4.22;;;;;;;26.37;45.53;99901.50;5064433;28;20411;-69
2022/06/27 02:11:51;;;;;;;7.28;4.97;;;;;;;26.45;45.65;99904.78;5069141;28;20028;-70
2022/06/27 02:14:17;;;;;;;7.90;4.65;;;;;;;26.48;45.51;99904.38;5074531;28;20089;-70
2022/06/27 02:16:43;;;;;;;8.07;5.47;;;;;;;26.50;45.71;99905.00;5074969;28;20489;-69
2022/06/27 02:19:14;;;;;;;6.40;4.95;;;;;;;26.54;45.28;99904.56;5074370;28;20033;-70
2022/06/27 02:21:41;;;;;;;7.60;4.55;;;;;;;26.55;45.33;99893.47;5073564;28;20070;-69
2022/06/27 02:24:06;;;;;;;6.50;4.38;;;;;;;26.57;45.28;99901.38;5054427;28;20378;-70
2022/06/27 02:26:32;;;;;;;6.57;4.47;;;;;;;26.59;45.25;99900.16;5054027;28;20165;-69
2022/06/27 02:28:59;;;;;;;6.18;4.82;;;;;;;26.74;45.01;99894.41;5053991;28;20487;-69
2022/06/27 02:31:24;;;;;;;8.57;5.18;;;;;;;26.95;44.94;99895.94;5053352;28;20039;-69
2022/06/27 02:33:52;;;;;;;8.35;4.90;;;;;;;27.18;44.18;99894.53;5073112;28;20044;-70
2022/06/27 02:36:41;;;;;;;6.43;4.10;;;;;;;27.40;43.95;99899.56;5073628;28;20052;-69
2022/06/27 02:39:10;;;;;;;6.25;4.30;;;;;;;27.50;43.80;99901.81;5074100;28;20036;-69
2022/06/27 02:41:39;;;;;;;5.90;4.22;;;;;;;27.55;43.78;99902.78;5055901;28;20039;-70
2022/06/27 02:44:09;;;;;;;5.25;4.22;;;;;;;27.53;43.87;99895.91;5073183;28;20474;-69
2022/06/27 02:46:36;;;;;;;10.35;4.60;;;;;;;27.48;43.64;99898.47;5073832;28;20111;-70
2022/06/27 02:49:03;;;;;;;8.90;4.60;;;;;;;27.45;43.83;99902.47;5073407;28;20560;-69
2022/06/27 02:51:35;;;;;;;5.03;4.53;;;;;;;27.43;43.89;99909.97;5073772;28;20039;-69
2022/06/27 02:54:09;;;;;;;9.25;4.50;;;;;;;27.41;44.08;99898.50;5074329;28;20435;-69
2022/06/27 02:56:43;;;;;;;5.43;4.07;;;;;;;27.40;43.52;99902.28;5072222;28;20094;-69
2022/06/27 02:59:19;;;;;;;7.80;4.18;;;;;;;27.38;43.81;99904.38;5071757;28;20411;-69
2022/06/27 03:01:47;;;;;;;7.18;4.13;;;;;;;27.37;43.57;99900.00;5073147;28;20038;-69
2022/06/27 03:04:13;;;;;;;6.57;5.03;;;;;;;27.36;43.84;99896.47;5073526;28;20075;-70
2022/06/27 03:06:38;;;;;;;7.65;4.47;;;;;;;27.38;44.02;99902.50;5073724;28;20032;-70
2022/06/27 03:09:04;;;;;;;6.22;4.40;;;;;;;27.41;43.78;99904.78;5054265;28;20120;-70
2022/06/27 03:11:29;;;;;;;6.05;4.43;;;;;;;27.46;43.38;99901.44;5065922;28;20418;-70
2022/06/27 03:13:55;;;;;;;5.18;4.30;;;;;;;27.50;43.53;99905.34;5069101;28;20384;-69
2022/06/27 03:16:22;;;;;;;7.82;4.30;;;;;;;27.64;43.12;99902.50;5072791;28;20040;-70
2022/06/27 03:18:49;;;;;;;6.00;4.30;;;;;;;27.86;43.24;99897.47;5072848;28;20499;-70
2022/06/27 03:21:17;;;;;;;6.07;3.88;;;;;;;28.12;42.56;99901.78;5072503;28;20032;-70
2022/06/27 03:23:52;;;;;;;6.55;3.58;;;;;;;28.43;41.72;99896.38;5052534;28;20038;-70
2022/06/27 03:26:18;;;;;;;5.50;3.75;;;;;;;28.70;41.53;99899.53;5054626;28;20044;-70
2022/06/27 03:28:45;;;;;;;5.85;4.38;;;;;;;28.93;40.88;99887.91;5053062;28;20029;-70
2022/06/27 03:31:10;;;;;;;6.30;4.07;;;;;;;29.15;40.61;99891.94;5053108;28;20032;-70
2022/06/27 03:33:37;;;;;;;8.48;4.32;;;;;;;29.32;40.60;99895.66;5054095;28;20056;-70
2022/06/27 03:36:03;;;;;;;6.20;4.07;;;;;;;29.48;40.21;99883.25;5052890;28;20643;-70
2022/06/27 03:38:29;;;;;;;5.43;3.65;;;;;;;29.54;39.90;99893.19;5059979;28;20047;-70
2022/06/27 03:40:54;;;;;;;6.70;4.22;;;;;;;29.54;39.75;99884.19;5073173;28;20072;-70
2022/06/27 03:43:20;;;;;;;7.10;4.45;;;;;;;29.54;39.83;99893.19;5055853;28;20059;-70
2022/06/27 03:45:46;;;;;;;6.18;3.92;;;;;;;29.52;39.95;99889.84;5054075;28;20079;-70
2022/06/27 03:49:59;;;;;;;6.22;4.07;;;;;;;29.48;39.98;99885.97;5052346;28;20393;-70
2022/06/27 03:50:57;;;;;;;5.68;4.15;;;;;;;29.43;40.13;99885.84;5052454;28;20106;-70
2022/06/27 03:53:22;;;;;;;6.05;3.72;;;;;;;29.39;40.27;99884.66;5053538;28;20033;-70
2022/06/27 03:55:48;;;;;;;5.93;3.90;;;;;;;29.40;40.31;99883.59;5052853;28;20051;-70
2022/06/27 03:58:13;;;;;;;4.40;3.90;;;;;;;29.33;40.55;99888.31;5052294;28;20059;-70
2022/06/27 04:00:39;;;;;;;5.22;4.40;;;;;;;29.28;40.26;99885.44;5052632;28;20041;-70
2022/06/27 04:03:04;;;;;;;7.72;4.18;;;;;;;29.20;40.80;99884.72;5053155;28;20469;-70
2022/06/27 04:05:30;;;;;;;5.35;4.63;;;;;;;29.11;40.86;99885.34;5060561;28;20054;-70
2022/06/27 04:07:55;;;;;;;7.47;5.05;;;;;;;29.06;40.82;99891.47;5066835;28;20396;-69
2022/06/27 04:10:21;;;;;;;6.57;3.80;;;;;;;29.04;40.82;99886.25;5072481;28;20112;-70
2022/06/27 04:12:46;;;;;;;5.20;4.28;;;;;;;29.02;40.65;99888.38;5072423;28;20043;-70
2022/06/27 04:15:12;;;;;;;4.63;4.05;;;;;;;28.98;40.87;99892.63;5071890;28;20032;-70
2022/06/27 04:17:38;;;;;;;5.88;4.45;;;;;;;28.93;41.37;99885.16;5072193;28;20055;-70
2022/06/27 04:20:05;;;;;;;5.65;4.32;;;;;;;28.89;41.33;99889.44;5072116;28;20383;-70
2022/06/27 04:22:30;;;;;;;5.07;4.38;;;;;;;28.86;41.42;99892.63;5072157;28;20028;-70
2022/06/27 04:24:57;;;;;;;6.38;4.30;;;;;;;28.84;41.47;99889.31;5048639;28;20040;-70
2022/06/27 04:27:22;;;;;;;7.60;4.72;;;;;;;28.88;41.19;99886.94;5053060;28;20031;-69
2022/06/27 04:29:48;;;;;;;4.57;3.67;;;;;;;28.87;41.33;99879.84;5052547;28;20400;-70
2022/06/27 04:32:18;;;;;;;4.95;4.07;;;;;;;28.86;41.09;99876.28;5051964;28;20564;-70
2022/06/27 04:34:44;;;;;;;8.55;5.20;;;;;;;28.89;41.20;99881.28;5052003;28;20124;-69
2022/06/27 04:37:10;;;;;;;4.78;4.15;;;;;;;29.03;41.31;99878.34;5055397;28;20112;-69
2022/06/27 04:39:36;;;;;;;8.02;4.35;;;;;;;29.28;41.03;99869.91;5054929;28;20120;-69
2022/06/27 04:42:02;;;;;;;7.43;4.60;;;;;;;29.62;40.35;99875.63;5071270;28;20063;-70
2022/06/27 04:44:27;;;;;;;8.77;5.10;;;;;;;29.98;39.66;99879.16;5072364;28;20375;-69
2022/06/27 04:46:53;;;;;;;7.07;4.50;;;;;;;30.28;39.25;99869.09;5061290;28;20037;-70
2022/06/27 04:49:19;;;;;;;5.13;4.35;;;;;;;30.54;38.46;99875.00;5051944;28;20496;-69
2022/06/27 04:51:49;;;;;;;6.00;4.53;;;;;;;30.74;38.22;99869.97;5052146;28;20040;-69
2022/06/27 04:54:16;;;;;;;6.05;4.43;;;;;;;30.93;38.02;99871.63;5052938;28;20396;-69
2022/06/27 04:56:42;;;;;;;5.10;4.45;;;;;;;31.07;37.81;99878.41;5056678;28;20036;-69
2022/06/27 04:59:09;;;;;;;4.82;3.75;;;;;;;31.23;37.76;99874.06;5056639;28;20032;-70
2022/06/27 05:01:35;;;;;;;6.30;4.32;;;;;;;31.37;37.47;99873.69;5075328;28;20039;-67
2022/06/27 05:04:01;;;;;;;6.03;4.20;;;;;;;31.48;37.12;99878.22;5075921;28;20028;-70
2022/06/27 05:06:26;;;;;;;5.35;4.22;;;;;;;31.58;37.04;99872.91;5075418;28;20399;-70
2022/06/27 05:08:52;;;;;;;5.13;4.03;;;;;;;31.64;36.93;99869.16;5075522;28;20040;-70
2022/06/27 05:11:17;;;;;;;8.10;4.53;;;;;;;31.73;36.75;99866.84;5074975;28;20032;-70
2022/06/27 05:13:43;;;;;;;6.60;4.53;;;;;;;31.83;36.62;99865.31;5075668;28;20066;-69
2022/06/27 05:16:08;;;;;;;6.03;4.30;;;;;;;31.91;36.57;99857.50;5064316;28;20052;-69
2022/06/27 05:18:34;;;;;;;4.85;4.25;;;;;;;32.01;36.53;99861.41;5056105;28;20107;-70
2022/06/27 05:21:00;;;;;;;5.25;4.45;;;;;;;32.07;36.55;99854.94;5054877;28;20055;-70
2022/06/27 05:23:25;;;;;;;5.35;4.15;;;;;;;32.14;35.93;99855.56;5054726;28;20037;-70
2022/06/27 05:25:51;;;;;;;10.07;5.38;;;;;;;32.17;35.99;99848.75;5060220;28;20123;-70
2022/06/27 05:28:16;;;;;;;5.78;4.90;;;;;;;32.20;35.87;99851.78;5074143;28;20115;-70
2022/06/27 05:30:42;;;;;;;5.55;4.50;;;;;;;32.22;36.14;99849.63;5075298;28;20111;-70
2022/06/27 05:33:07;;;;;;;5.47;4.70;;;;;;;32.25;35.98;99840.94;5074694;28;20472;-70
2022/06/27 05:35:33;;;;;;;5.45;4.63;;;;;;;32.24;35.96;99844.72;5074259;28;20060;-69
2022/06/27 05:37:59;;;;;;;5.43;4.25;;;;;;;32.23;35.91;99843.06;5061774;28;20059;-70
2022/06/27 05:40:25;;;;;;;6.60;4.82;;;;;;;32.22;36.19;99840.56;5054964;28;20400;-70
2022/06/27 05:42:53;;;;;;;7.20;4.60;;;;;;;32.18;36.51;99834.78;5067792;28;20407;-69
2022/06/27 05:45:20;;;;;;;4.80;4.30;;;;;;;32.17;36.42;99841.34;5074684;28;20439;-70
2022/06/27 05:47:46;;;;;;;5.35;4.47;;;;;;;32.15;36.19;99840.78;5066231;28;20035;-70
2022/06/27 05:50:12;;;;;;;7.68;4.78;;;;;;;32.16;36.34;99841.63;5067638;28;20044;-70
2022/06/27 05:52:39;;;;;;;5.35;4.82;;;;;;;32.15;36.38;99846.25;5064400;28;20139;-70
2022/06/27 05:55:08;;;;;;;7.22;4.63;;;;;;;32.13;36.47;99844.88;5054939;28;20036;-70
2022/06/27 05:57:35;;;;;;;5.47;4.63;;;;;;;32.06;36.39;99840.41;5054309;28;20033;-69
2022/06/27 06:00:02;;;;;;;11.82;4.60;;;;;;;32.01;36.39;99839.53;5054538;28;20029;-70
2022/06/27 06:02:27;;;;;;;6.40;4.82;;;;;;;31.96;36.55;99838.41;5062803;28;20033;-69
2022/06/27 06:04:53;;;;;;;5.70;4.32;;;;;;;31.91;36.78;99832.88;5074337;28;20043;-70
2022/06/27 06:07:21;;;;;;;6.07;4.40;;;;;;;31.86;36.96;99835.53;5073893;28;20055;-70
2022/06/27 06:09:46;;;;;;;6.15;4.78;;;;;;;31.81;36.82;99838.22;5056883;28;20037;-70
2022/06/27 06:12:12;;;;;;;6.22;4.90;;;;;;;31.76;37.02;99836.25;5069631;28;20024;-69
2022/06/27 06:14:38;;;;;;;6.32;4.70;;;;;;;31.70;37.14;99831.78;5072257;28;20159;-68
2022/06/27 06:17:04;;;;;;;5.72;4.75;;;;;;;31.63;37.21;99831.94;5073534;28;20510;-70
2022/06/27 06:19:31;;;;;;;7.32;4.57;;;;;;;31.57;37.37;99830.22;5074142;28;20040;-70
2022/06/27 06:21:57;;;;;;;5.57;4.43;;;;;;;31.51;37.62;99840.25;5074364;28;20037;-70
2022/06/27 06:24:24;;;;;;;5.93;5.20;;;;;;;31.45;37.84;99832.25;5073561;28;20033;-70
2022/06/27 06:26:52;;;;;;;8.27;5.00;;;;;;;31.32;37.86;99831.53;5073773;28;20044;-70
2022/06/27 06:29:18;;;;;;;5.05;4.55;;;;;;;31.15;38.18;99825.25;5074577;28;20036;-70
2022/06/27 06:31:45;;;;;;;9.35;5.15;;;;;;;30.93;38.58;99823.28;5070893;28;20121;-70
2022/06/27 06:34:13;;;;;;;7.63;5.03;;;;;;;30.78;38.97;99825.78;5054271;28;20111;-70
2022/06/27 06:36:39;;;;;;;8.57;5.40;;;;;;;30.63;39.37;99832.63;5036673;28;20551;-70
2022/06/27 06:39:06;;;;;;;11.43;5.07;;;;;;;30.55;39.22;99824.81;5033986;28;20076;-70
2022/06/27 06:41:33;;;;;;;8.70;4.40;;;;;;;30.47;39.71;99827.94;5033726;28;20033;-70
2022/06/27 06:43:59;;;;;;;7.97;5.60;;;;;;;30.39;39.76;99824.53;5034077;28;20021;-70
2022/06/27 06:46:26;;;;;;;7.65;4.93;;;;;;;30.34;39.76;99829.06;5034953;28;20112;-70
2022/06/27 06:48:54;;;;;;;5.85;4.35;;;;;;;30.28;39.83;99828.16;5053215;28;20096;-70
2022/06/27 06:51:20;;;;;;;7.88;5.05;;;;;;;30.25;40.01;99825.91;5053388;28;20033;-70
2022/06/27 06:53:46;;;;;;;5.47;4.97;;;;;;;30.19;40.27;99830.44;5049451;28;20029;-70
2022/06/27 06:56:12;;;;;;;5.68;5.00;;;;;;;30.15;40.04;99829.25;5033776;28;20396;-70
2022/06/27 06:58:38;;;;;;;10.25;5.38;;;;;;;30.12;40.14;99825.13;5044833;28;20396;-70
2022/06/27 07:01:03;;;;;;;7.78;5.47;;;;;;;30.09;40.61;99825.59;5033622;28;20029;-71
2022/06/27 07:03:29;;;;;;;6.20;5.60;;;;;;;30.07;40.33;99830.47;5033669;28;20453;-70
2022/06/27 07:05:56;;;;;;;10.52;5.18;;;;;;;30.04;40.80;99833.72;5033715;28;20091;-70
2022/06/27 07:08:22;;;;;;;5.82;5.20;;;;;;;30.03;40.68;99825.75;5033280;28;20045;-70
2022/06/27 07:10:48;;;;;;;9.18;5.55;;;;;;;30.01;40.88;99828.72;5035869;28;20025;-71
2022/06/27 07:13:15;;;;;;;6.47;5.07;;;;;;;29.97;40.79;99825.66;5034489;28;20033;-71
2022/06/27 07:15:43;;;;;;;10.90;5.30;;;;;;;29.95;40.91;99818.78;5033278;28;20033;-71
2022/06/27 07:18:09;;;;;;;7.97;5.95;;;;;;;29.91;40.90;99828.50;5032482;28;20033;-71
2022/06/27 07:20:37;;;;;;;8.48;5.28;;;;;;;29.91;40.77;99829.31;5040975;28;20208;-71
2022/06/27 07:23:04;;;;;;;7.10;5.13;;;;;;;29.89;40.78;99817.81;5042709;28;20033;-71
2022/06/27 07:25:31;;;;;;;9.30;5.40;;;;;;;29.90;40.86;99821.41;5042730;28;20060;-71
2022/06/27 07:27:59;;;;;;;6.45;5.80;;;;;;;29.87;40.75;99817.22;5052714;28;20052;-71
2022/06/27 07:30:24;;;;;;;6.45;5.45;;;;;;;29.86;40.81;99815.56;5052900;28;20033;-71
2022/06/27 07:32:50;;;;;;;5.53;4.90;;;;;;;29.86;41.18;99822.94;5034118;28;20060;-70
2022/06/27 07:35:17;;;;;;;12.00;5.55;;;;;;;29.83;40.89;99833.25;5020762;28;20072;-70
2022/06/27 07:37:45;;;;;;;5.63;5.10;;;;;;;29.84;41.08;99824.00;5052892;28;20045;-71
2022/06/27 07:40:11;;;;;;;9.77;6.13;;;;;;;29.86;41.09;99826.47;5052577;28;20119;-71
2022/06/27 07:42:38;;;;;;;5.60;5.10;;;;;;;29.84;41.14;99821.28;5054407;28;20029;-71
2022/06/27 07:45:06;;;;;;;8.20;5.45;;;;;;;29.83;41.18;99811.44;5054213;28;20046;-71
2022/06/27 07:47:32;;;;;;;5.85;5.07;;;;;;;29.82;40.97;99822.59;5052413;28;20048;-71
2022/06/27 07:49:57;;;;;;;6.07;5.47;;;;;;;29.81;40.92;99826.41;5052507;28;20024;-71
2022/06/27 07:52:23;;;;;;;6.25;5.65;;;;;;;29.83;41.04;99816.09;5057842;28;20020;-70
2022/06/27 07:54:51;;;;;;;5.75;5.25;;;;;;;29.84;40.74;99806.84;5060863;28;20496;-70
2022/06/27 07:57:19;;;;;;;6.82;5.78;;;;;;;29.83;41.10;99818.81;5052608;28;20029;-71
2022/06/27 07:59:44;;;;;;;5.78;5.18;;;;;;;29.81;40.91;99823.66;5068067;28;20035;-71
2022/06/27 08:02:10;;;;;;;9.65;5.53;;;;;;;29.82;40.83;99820.69;5066270;28;20036;-71
2022/06/27 08:04:37;;;;;;;6.25;5.65;;;;;;;29.84;41.38;99809.56;5052725;28;20406;-70
2022/06/27 08:07:03;;;;;;;5.80;5.30;;;;;;;29.85;41.13;99813.94;5052236;28;20815;-70
2022/06/27 08:09:29;;;;;;;6.72;6.13;;;;;;;29.87;41.47;99810.97;5052734;28;20444;-70
2022/06/27 08:11:55;;;;;;;7.47;6.10;;;;;;;29.86;40.82;99814.75;5068837;28;20029;-70
2022/06/27 08:14:21;;;;;;;8.55;6.43;;;;;;;29.83;41.20;99821.53;5056313;28;20044;-71
2022/06/27 08:16:49;;;;;;;7.35;6.68;;;;;;;29.83;41.61;99821.53;5052614;28;20031;-71
2022/06/27 08:19:15;;;;;;;9.07;6.18;;;;;;;29.83;41.59;99821.53;5072630;28;20028;-71
2022/06/27 08:21:43;;;;;;;10.45;7.00;;;;;;;29.83;41.85;99803.25;5072131;28;20062;-70
2022/06/27 08:24:11;;;;;;;8.85;6.47;;;;;;;29.88;41.49;99807.16;5072388;28;20067;-71
2022/06/27 08:26:37;;;;;;;7.88;7.07;;;;;;;29.86;41.23;99806.56;5071398;28;20462;-70
2022/06/27 08:29:05;;;;;;;10.23;6.35;;;;;;;29.82;41.31;99809.78;5058285;28;20047;-68
2022/06/27 08:31:32;;;;;;;7.05;6.30;;;;;;;29.80;40.83;99798.28;5076255;28;20044;-69
2022/06/27 08:34:01;;;;;;;12.30;7.43;;;;;;;29.78;41.36;99796.88;5076267;28;20058;-70
2022/06/27 08:36:30;;;;;;;6.72;6.13;;;;;;;29.76;41.66;99805.31;5075693;28;20060;-70
2022/06/27 08:38:58;;;;;;;8.48;7.60;;;;;;;29.75;41.34;99806.38;5066873;28;20028;-70
2022/06/27 08:41:24;;;;;;;11.07;7.75;;;;;;;29.74;41.66;99806.59;5076136;28;20036;-69
2022/06/27 08:43:58;;;;;;;7.85;7.15;;;;;;;29.71;41.53;99801.63;5075961;28;20479;-69
2022/06/27 08:46:24;;;;;;;9.18;6.88;;;;;;;29.72;41.58;99804.13;5074686;28;20086;-69
2022/06/27 08:48:50;;;;;;;10.85;6.88;;;;;;;29.73;41.68;99811.25;5062871;28;20056;-68
2022/06/27 08:51:16;;;;;;;9.85;5.78;;;;;;;29.73;41.76;99807.66;5055583;28;20060;-69
2022/06/27 08:53:42;;;;;;;6.82;6.10;;;;;;;29.73;41.80;99803.06;5055708;28;20070;-68
2022/06/27 08:56:10;;;;;;;9.10;6.47;;;;;;;29.69;41.53;99785.50;5055947;28;20048;-68
2022/06/27 08:58:37;;;;;;;7.18;6.45;;;;;;;29.70;41.74;99795.34;5069175;28;20392;-68
2022/06/27 09:01:04;;;;;;;26.15;6.63;;;;;;;29.66;42.04;99791.44;5072554;28;20032;-67
2022/06/27 09:03:30;;;;;;;8.98;6.97;;;;;;;29.63;41.82;99795.50;5071298;28;20036;-68
2022/06/27 09:06:07;;;;;;;7.65;6.85;;;;;;;29.61;42.07;99788.63;5072742;28;20381;-67
2022/06/27 09:08:36;;;;;;;7.63;6.88;;;;;;;29.57;41.96;99785.53;5066163;28;20032;-68
2022/06/27 09:11:03;;;;;;;8.25;7.10;;;;;;;29.57;41.91;99790.19;5066587;28;20047;-68
2022/06/27 09:13:29;;;;;;;11.07;7.60;;;;;;;29.59;42.18;99788.84;5069164;28;20033;-67
2022/06/27 09:16:02;;;;;;;11.88;7.20;;;;;;;29.65;42.26;99777.00;5065616;28;20507;-68
2022/06/27 09:18:35;;;;;;;11.07;7.40;;;;;;;29.65;42.11;99793.38;5066949;28;20492;-67
2022/06/27 09:21:02;;;;;;;9.27;7.35;;;;;;;29.60;42.39;99786.97;5072001;28;20025;-68
2022/06/27 09:23:27;;;;;;;8.18;6.78;;;;;;;29.57;42.50;99787.44;5071483;28;20028;-68
2022/06/27 09:26:01;;;;;;;7.78;6.97;;;;;;;29.56;42.46;99783.06;5066803;28;21807;-67
2022/06/27 09:29:04;;;;;;;10.50;7.75;;;;;;;29.57;42.07;99779.28;5071806;28;20070;-67
2022/06/27 09:31:31;;;;;;;8.10;6.45;;;;;;;29.54;42.29;99777.88;5035418;28;20036;-69
2022/06/27 09:34:20;;;;;;;8.18;7.38;;;;;;;29.55;42.55;99776.81;5078812;28;20064;-69
2022/06/27 09:36:52;;;;;;;8.02;7.18;;;;;;;29.54;42.25;99775.94;5073011;28;20045;-68
2022/06/27 09:39:33;;;;;;;8.43;7.05;;;;;;;29.58;42.42;99765.38;5065969;28;20040;-69
2022/06/27 09:42:04;;;;;;;10.63;7.28;;;;;;;29.56;41.97;99781.16;5071806;28;20127;-69
2022/06/27 09:44:41;;;;;;;11.77;8.38;;;;;;;29.60;41.83;99765.97;5071523;28;20083;-70
2022/06/27 09:47:10;;;;;;;12.30;7.45;;;;;;;29.57;42.09;99765.63;5068108;28;20060;-69
2022/06/27 09:49:38;;;;;;;9.30;7.25;;;;;;;29.55;41.75;99755.00;5073743;28;20107;-70
2022/06/27 09:52:06;;;;;;;16.08;9.60;;;;;;;29.56;42.11;99761.25;5072539;28;20437;-69
2022/06/27 09:54:34;;;;;;;10.00;8.43;;;;;;;29.53;42.52;99755.22;5072821;28;20036;-70
2022/06/27 09:57:00;;;;;;;11.38;7.35;;;;;;;29.52;42.27;99760.91;5068979;28;20043;-68
2022/06/27 09:59:27;;;;;;;8.57;7.68;;;;;;;29.52;42.76;99756.28;5067986;28;20060;-69
2022/06/27 10:01:56;;;;;;;8.45;7.55;;;;;;;29.65;42.38;99754.34;5068349;28;20063;-68
2022/06/27 10:04:24;;;;;;;9.15;7.68;;;;;;;29.71;42.09;99760.72;5067015;28;20041;-69
2022/06/27 10:06:51;;;;;;;14.02;8.63;;;;;;;29.66;42.18;99753.28;5072470;28;20028;-69
2022/06/27 10:09:20;;;;;;;8.88;8.00;;;;;;;29.61;42.29;99766.81;5069823;28;20040;-70
2022/06/27 10:12:23;;;;;;;8.40;7.60;;;;;;;29.56;42.90;99763.97;5066381;28;20521;-68
2022/06/27 10:15:10;;;;;;;10.95;8.20;;;;;;;29.53;42.87;99757.94;5064335;28;20032;-70
2022/06/27 10:17:46;;;;;;;10.52;7.80;;;;;;;29.48;42.53;99760.59;5056515;28;20033;-68
2022/06/27 10:20:19;;;;;;;9.02;8.13;;;;;;;29.46;43.01;99756.41;5068852;28;20040;-69
2022/06/27 10:23:05;;;;;;;9.00;7.22;;;;;;;29.49;42.40;99745.84;5069762;28;20048;-68
2022/06/27 10:25:32;;;;;;;8.40;6.80;;;;;;;29.63;41.57;99748.31;5074267;28;20032;-68
2022/06/27 10:28:07;;;;;;;7.05;6.40;;;;;;;29.72;41.54;99746.88;5073397;28;20040;-68
2022/06/27 10:30:42;;;;;;;9.10;6.80;;;;;;;29.75;41.10;99740.09;5073254;28;20467;-68
2022/06/27 10:33:25;;;;;;;11.07;6.90;;;;;;;29.79;40.97;99742.09;5075523;28;20082;-68
2022/06/27 10:35:57;;;;;;;10.63;6.97;;;;;;;29.78;41.49;99740.41;5068159;28;20071;-67
2022/06/27 10:38:24;;;;;;;15.50;6.90;;;;;;;29.71;41.30;99742.47;5059999;28;20047;-67
2022/06/27 10:40:50;;;;;;;15.43;6.57;;;;;;;29.68;41.75;99740.22;5067510;28;20045;-68
2022/06/27 10:43:48;;;;;;;9.68;6.65;;;;;;;29.65;41.15;99737.97;5064440;28;20040;-69
2022/06/27 10:46:13;;;;;;;7.85;5.72;;;;;;;29.62;41.53;99733.84;5054170;28;20087;-68
2022/06/27 10:48:40;;;;;;;8.43;6.53;;;;;;;29.63;41.34;99735.50;5073460;28;20040;-69
2022/06/27 10:51:28;;;;;;;11.95;6.68;;;;;;;29.76;41.05;99733.56;5073184;28;20040;-69
2022/06/27 10:54:06;;;;;;;8.13;6.68;;;;;;;29.79;40.94;99738.53;5045933;28;20693;-69
2022/06/27 10:56:31;;;;;;;10.05;6.28;;;;;;;29.75;40.65;99730.03;5073956;28;20112;-68
2022/06/27 10:58:58;;;;;;;6.45;5.85;;;;;;;29.73;41.25;99721.25;5073376;28;20583;-69
2022/06/27 11:01:23;;;;;;;6.65;6.05;;;;;;;29.69;41.10;99726.38;5073430;28;20403;-68
2022/06/27 11:03:50;;;;;;;11.10;6.15;;;;;;;29.67;41.21;99724.94;5072852;28;20041;-68
2022/06/27 11:06:16;;;;;;;8.15;6.47;;;;;;;29.63;41.57;99721.88;5073106;28;20042;-68
2022/06/27 11:08:44;;;;;;;9.43;6.15;;;;;;;29.58;41.53;99721.78;5073239;28;20040;-69
2022/06/27 11:11:17;;;;;;;9.35;5.85;;;;;;;29.57;41.54;99716.56;5063032;28;20036;-68
2022/06/27 11:13:44;;;;;;;8.27;6.90;;;;;;;29.54;41.66;99724.16;5067047;28;20032;-68
2022/06/27 11:16:20;;;;;;;6.93;6.03;;;;;;;29.52;41.59;99723.56;5073233;28;20058;-68
2022/06/27 11:18:48;;;;;;;7.00;6.28;;;;;;;29.49;42.08;99724.03;5052902;28;20044;-68
2022/06/27 11:21:36;;;;;;;6.75;6.10;;;;;;;29.48;41.67;99724.31;5052785;28;20041;-68
2022/06/27 11:24:07;;;;;;;8.13;6.35;;;;;;;29.46;42.23;99716.38;5053391;28;20064;-68
2022/06/27 11:26:47;;;;;;;10.45;6.15;;;;;;;29.47;42.21;99717.19;5053100;28;20048;-68
2022/06/27 11:32:13;;;;;;;10.57;6.95;;;;;;;29.48;42.21;99714.25;5072951;28;20101;-69
2022/06/27 11:34:43;;;;;;;10.68;6.45;;;;;;;29.48;42.29;99716.97;5072583;28;20107;-68
2022/06/27 11:37:17;;;;;;;7.32;6.53;;;;;;;29.48;41.94;99714.25;5072449;28;20095;-67